createdAt,value
2018-07-23T00:01:14.676Z,100.00
2018-07-23T00:03:43.303Z,100.00
2018-07-23T00:06:11.934Z,100.00
2018-07-23T00:08:40.638Z,100.00
2018-07-23T00:11:09.428Z,100.00
2018-07-23T00:13:39.088Z,100.00
2018-07-23T00:16:07.723Z,100.00
2018-07-23T00:18:36.380Z,100.00
2018-07-23T00:21:04.969Z,100.00
2018-07-23T00:23:33.870Z,100.00
2018-07-23T00:26:02.470Z,100.00
2018-07-23T00:28:31.360Z,100.00
2018-07-23T00:31:00.154Z,100.00
2018-07-23T00:33:28.967Z,100.00
2018-07-23T00:35:57.607Z,100.00
2018-07-23T00:38:26.340Z,100.00
2018-07-23T00:40:55.095Z,100.00
2018-07-23T00:43:23.914Z,100.00
2018-07-23T00:45:52.799Z,100.00
2018-07-23T00:48:21.376Z,100.00
2018-07-23T00:50:49.926Z,100.00
2018-07-23T00:53:18.726Z,100.00
2018-07-23T00:55:47.351Z,100.00
2018-07-23T00:58:16.175Z,100.00
2018-07-23T01:00:44.845Z,100.00
2018-07-23T01:03:13.757Z,100.00
2018-07-23T01:05:42.661Z,100.00
2018-07-23T01:08:12.261Z,100.00
2018-07-23T01:10:40.951Z,100.00
2018-07-23T01:13:09.595Z,100.00
2018-07-23T01:15:38.406Z,100.00
2018-07-23T01:18:07.201Z,100.00
2018-07-23T01:20:35.937Z,100.00
2018-07-23T01:23:04.550Z,100.00
2018-07-23T01:25:33.373Z,100.00
2018-07-23T01:28:02.195Z,100.00
2018-07-23T01:30:30.767Z,100.00
2018-07-23T01:32:59.565Z,100.00
2018-07-23T01:35:28.390Z,100.00
2018-07-23T01:37:57.068Z,100.00
2018-07-23T01:40:25.845Z,100.00
2018-07-23T01:42:54.475Z,100.00
2018-07-23T01:45:23.230Z,100.00
2018-07-23T01:47:51.943Z,100.00
2018-07-23T01:50:20.876Z,100.00
2018-07-23T01:52:49.566Z,100.00
2018-07-23T01:55:18.291Z,100.00
2018-07-23T01:57:47.142Z,100.00
2018-07-23T02:00:15.853Z,100.00
2018-07-23T02:02:44.810Z,100.00
2018-07-23T02:05:13.485Z,100.00
2018-07-23T02:07:42.341Z,100.00
2018-07-23T02:10:10.986Z,100.00
2018-07-23T02:12:39.662Z,100.00
2018-07-23T02:15:08.408Z,100.00
2018-07-23T02:17:37.253Z,100.00
2018-07-23T02:20:06.449Z,100.00
2018-07-23T02:22:35.213Z,100.00
2018-07-23T02:25:04.248Z,100.00
2018-07-23T02:27:33.038Z,100.00
2018-07-23T02:30:01.859Z,100.00
2018-07-23T02:32:30.503Z,100.00
2018-07-23T02:34:59.265Z,100.00
2018-07-23T02:37:28.003Z,100.00
2018-07-23T02:39:56.633Z,100.00
2018-07-23T02:42:25.404Z,100.00
2018-07-23T02:44:54.090Z,100.00
2018-07-23T02:47:22.806Z,100.00
2018-07-23T02:49:51.448Z,100.00
2018-07-23T02:52:20.212Z,100.00
2018-07-23T02:54:48.906Z,100.00
2018-07-23T02:57:17.691Z,100.00
2018-07-23T02:59:46.518Z,100.00
2018-07-23T03:02:15.159Z,100.00
2018-07-23T03:04:43.802Z,100.00
2018-07-23T03:07:12.770Z,100.00
2018-07-23T03:09:41.435Z,100.00
2018-07-23T03:12:10.106Z,100.00
2018-07-23T03:14:38.839Z,100.00
2018-07-23T03:17:07.649Z,100.00
2018-07-23T03:19:36.292Z,100.00
2018-07-23T03:22:04.953Z,100.00
2018-07-23T03:24:33.610Z,100.00
2018-07-23T03:27:02.489Z,100.00
2018-07-23T03:29:31.160Z,100.00
2018-07-23T03:32:00.837Z,100.00
2018-07-23T03:34:29.660Z,100.00
2018-07-23T03:36:58.414Z,100.00
2018-07-23T03:39:27.009Z,100.00
2018-07-23T03:41:55.694Z,100.00
2018-07-23T03:44:24.348Z,100.00
2018-07-23T03:46:52.963Z,100.00
2018-07-23T03:49:21.576Z,100.00
2018-07-23T03:51:50.266Z,100.00
2018-07-23T03:54:18.924Z,100.00
2018-07-23T03:56:47.680Z,100.00
2018-07-23T03:59:16.513Z,100.00
2018-07-23T04:01:46.497Z,100.00
2018-07-23T04:04:16.851Z,100.00
2018-07-23T04:06:46.847Z,100.00
2018-07-23T04:09:15.492Z,100.00
2018-07-23T04:11:44.689Z,100.00
2018-07-23T04:14:13.505Z,100.00
2018-07-23T04:16:42.118Z,100.00
2018-07-23T04:19:10.686Z,100.00
2018-07-23T04:21:39.249Z,100.00
2018-07-23T04:24:07.798Z,100.00
2018-07-23T04:26:36.384Z,100.00
2018-07-23T04:29:05.115Z,100.00
2018-07-23T04:31:33.713Z,100.00
2018-07-23T04:34:02.329Z,100.00
2018-07-23T04:36:30.961Z,100.00
2018-07-23T04:38:59.586Z,100.00
2018-07-23T04:41:28.129Z,100.00
2018-07-23T04:43:56.734Z,100.00
2018-07-23T04:46:25.294Z,100.00
2018-07-23T04:48:53.861Z,100.00
2018-07-23T04:51:22.466Z,100.00
2018-07-23T04:53:51.029Z,100.00
2018-07-23T04:56:19.634Z,100.00
2018-07-23T04:58:48.231Z,100.00
2018-07-23T05:01:16.802Z,100.00
2018-07-23T05:03:45.557Z,100.00
2018-07-23T05:06:14.252Z,100.00
2018-07-23T05:08:43.039Z,100.00
2018-07-23T05:11:11.743Z,100.00
2018-07-23T05:13:40.620Z,100.00
2018-07-23T05:16:09.871Z,100.00
2018-07-23T05:18:38.876Z,100.00
2018-07-23T05:21:07.549Z,100.00
2018-07-23T05:23:36.213Z,100.00
2018-07-23T05:26:04.959Z,100.00
2018-07-23T05:28:33.521Z,100.00
2018-07-23T05:31:02.189Z,100.00
2018-07-23T05:33:31.515Z,100.00
2018-07-23T05:36:00.140Z,100.00
2018-07-23T05:38:28.926Z,100.00
2018-07-23T05:40:57.606Z,100.00
2018-07-23T05:43:26.256Z,100.00
2018-07-23T05:45:55.015Z,100.00
2018-07-23T05:48:24.420Z,100.00
2018-07-23T05:50:53.881Z,100.00
2018-07-23T05:53:22.693Z,100.00
2018-07-23T05:55:51.372Z,100.00
2018-07-23T05:58:20.114Z,100.00
2018-07-23T06:00:48.798Z,100.00
2018-07-23T06:03:17.464Z,100.00
2018-07-23T06:05:46.982Z,100.00
2018-07-23T06:08:15.771Z,100.00
2018-07-23T06:10:44.404Z,100.00
2018-07-23T06:13:13.185Z,100.00
2018-07-23T06:15:41.990Z,100.00
2018-07-23T06:18:10.666Z,100.00
2018-07-23T06:20:39.457Z,100.00
2018-07-23T06:23:08.453Z,100.00
2018-07-23T06:25:37.259Z,100.00
2018-07-23T06:28:06.473Z,100.00
2018-07-23T06:30:35.255Z,100.00
2018-07-23T06:33:05.029Z,100.00
2018-07-23T06:35:33.931Z,100.00
2018-07-23T06:38:04.935Z,100.00
2018-07-23T06:40:33.650Z,100.00
2018-07-23T06:43:02.479Z,100.00
2018-07-23T06:45:31.078Z,100.00
2018-07-23T06:47:59.870Z,100.00
2018-07-23T06:50:28.941Z,100.00
2018-07-23T06:52:57.627Z,100.00
2018-07-23T06:55:26.236Z,100.00
2018-07-23T06:57:55.274Z,100.00
2018-07-23T07:00:23.896Z,100.00
2018-07-23T07:02:52.540Z,100.00
2018-07-23T07:07:49.836Z,100.00
2018-07-23T07:10:19.180Z,100.00
2018-07-23T07:12:47.896Z,94.43
2018-07-23T07:15:17.005Z,85.69
2018-07-23T07:17:46.063Z,92.49
2018-07-23T07:20:15.094Z,97.60
2018-07-23T07:22:43.704Z,96.21
2018-07-23T07:25:12.415Z,100.00
2018-07-23T07:27:40.980Z,100.00
2018-07-23T07:30:10.266Z,100.00
2018-07-23T07:32:38.900Z,100.00
2018-07-23T07:35:07.589Z,100.00
2018-07-23T07:37:36.298Z,100.00
2018-07-23T07:40:04.950Z,100.00
2018-07-23T07:42:33.609Z,100.00
2018-07-23T07:45:02.306Z,100.00
2018-07-23T07:47:31.543Z,100.00
2018-07-23T07:50:00.663Z,100.00
2018-07-23T07:52:29.769Z,100.00
2018-07-23T07:54:58.927Z,100.00
2018-07-23T07:57:28.149Z,97.20
2018-07-23T07:59:57.207Z,89.93
2018-07-23T08:02:25.805Z,79.90
2018-07-23T08:04:54.420Z,80.19
2018-07-23T08:07:23.137Z,74.43
2018-07-23T08:09:51.721Z,69.72
2018-07-23T08:12:20.442Z,64.45
2018-07-23T08:14:49.006Z,67.51
2018-07-23T08:17:17.625Z,65.99
2018-07-23T08:19:46.212Z,66.27
2018-07-23T08:22:14.826Z,57.90
2018-07-23T08:24:43.423Z,59.08
2018-07-23T08:27:12.371Z,67.35
2018-07-23T08:29:40.996Z,68.27
2018-07-23T08:32:09.639Z,69.79
2018-07-23T08:34:38.238Z,68.19
2018-07-23T08:37:06.890Z,64.57
2018-07-23T08:39:35.559Z,61.37
2018-07-23T08:42:04.244Z,48.40
2018-07-23T08:44:32.862Z,45.85
2018-07-23T08:47:01.406Z,39.06
2018-07-23T08:49:29.961Z,37.10
2018-07-23T08:51:58.568Z,39.34
2018-07-23T08:54:27.086Z,36.67
2018-07-23T08:56:55.596Z,37.01
2018-07-23T08:59:24.132Z,36.03
2018-07-23T09:01:52.645Z,34.38
2018-07-23T09:04:21.186Z,34.06
2018-07-23T09:06:49.720Z,33.53
2018-07-23T09:09:18.256Z,33.90
2018-07-23T09:11:46.761Z,34.72
2018-07-23T09:14:15.327Z,34.22
2018-07-23T09:16:43.869Z,37.01
2018-07-23T09:19:12.461Z,39.92
2018-07-23T09:21:40.962Z,36.91
2018-07-23T09:24:09.505Z,32.45
2018-07-23T09:26:38.071Z,33.48
2018-07-23T09:29:06.650Z,38.56
2018-07-23T09:31:35.186Z,34.99
2018-07-23T09:34:03.730Z,33.42
2018-07-23T09:36:32.256Z,31.47
2018-07-23T09:39:00.789Z,32.04
2018-07-23T09:41:29.309Z,29.18
2018-07-23T09:43:57.846Z,29.68
2018-07-23T09:46:26.389Z,29.45
2018-07-23T09:48:54.932Z,31.31
2018-07-23T09:51:23.453Z,29.16
2018-07-23T09:53:51.981Z,30.30
2018-07-23T09:56:20.528Z,33.08
2018-07-23T09:58:49.253Z,34.27
2018-07-23T10:01:19.514Z,35.78
2018-07-23T10:03:48.341Z,40.19
2018-07-23T10:06:16.969Z,40.97
2018-07-23T10:08:45.513Z,44.42
2018-07-23T10:11:14.065Z,48.58
2018-07-23T10:13:42.670Z,57.90
2018-07-23T10:16:11.244Z,64.80
2018-07-23T10:18:39.769Z,62.44
2018-07-23T10:21:08.312Z,65.57
2018-07-23T10:23:36.865Z,65.09
2018-07-23T10:26:05.408Z,67.50
2018-07-23T10:28:33.974Z,63.98
2018-07-23T10:31:02.539Z,60.38
2018-07-23T10:33:31.049Z,56.42
2018-07-23T10:35:59.689Z,46.72
2018-07-23T10:38:28.265Z,38.66
2018-07-23T10:40:56.911Z,36.25
2018-07-23T10:43:25.481Z,35.31
2018-07-23T10:45:54.093Z,35.18
2018-07-23T10:48:22.668Z,35.23
2018-07-23T10:50:51.343Z,33.80
2018-07-23T10:53:20.021Z,35.73
2018-07-23T10:55:48.539Z,34.00
2018-07-23T10:58:17.269Z,32.30
2018-07-23T11:00:45.810Z,33.24
2018-07-23T11:03:14.406Z,34.64
2018-07-23T11:05:42.961Z,36.51
2018-07-23T11:08:11.514Z,35.56
2018-07-23T11:10:40.029Z,34.73
2018-07-23T11:13:08.582Z,33.97
2018-07-23T11:15:37.088Z,35.66
2018-07-23T11:18:05.714Z,30.74
2018-07-23T11:20:34.264Z,33.98
2018-07-23T11:23:02.882Z,34.93
2018-07-23T11:25:39.525Z,36.41
2018-07-23T11:28:00.156Z,41.77
2018-07-23T11:30:28.720Z,45.94
2018-07-23T11:32:57.294Z,51.00
2018-07-23T11:35:25.837Z,48.94
2018-07-23T11:37:54.384Z,50.94
2018-07-23T11:40:22.940Z,55.98
2018-07-23T11:42:51.583Z,56.66
2018-07-23T11:45:20.182Z,59.43
2018-07-23T11:47:48.698Z,59.50
2018-07-23T11:50:17.221Z,61.83
2018-07-23T11:52:45.764Z,63.21
2018-07-23T11:55:14.310Z,67.27
2018-07-23T11:57:42.855Z,67.50
2018-07-23T12:00:11.404Z,68.83
2018-07-23T12:02:39.956Z,67.53
2018-07-23T12:05:08.531Z,68.18
2018-07-23T12:07:37.134Z,68.39
2018-07-23T12:10:05.723Z,67.02
2018-07-23T12:12:34.297Z,66.42
2018-07-23T12:15:02.828Z,63.92
2018-07-23T12:17:31.368Z,59.50
2018-07-23T12:20:00.090Z,62.47
2018-07-23T12:22:28.677Z,62.66
2018-07-23T12:24:57.445Z,59.92
2018-07-23T12:27:26.036Z,55.07
2018-07-23T12:29:54.584Z,59.68
2018-07-23T12:32:23.471Z,58.81
2018-07-23T12:34:52.054Z,59.66
2018-07-23T12:37:20.662Z,56.02
2018-07-23T12:39:49.290Z,54.78
2018-07-23T12:42:17.862Z,54.02
2018-07-23T12:44:46.469Z,54.28
2018-07-23T12:47:15.109Z,52.31
2018-07-23T12:49:43.696Z,52.62
2018-07-23T12:52:12.257Z,48.95
2018-07-23T12:54:40.868Z,54.49
2018-07-23T12:57:09.438Z,50.75
2018-07-23T12:59:37.999Z,49.61
2018-07-23T13:02:06.571Z,50.64
2018-07-23T13:04:35.165Z,49.42
2018-07-23T13:07:03.724Z,51.40
2018-07-23T13:09:32.380Z,55.18
2018-07-23T13:12:00.996Z,48.86
2018-07-23T13:14:29.690Z,50.52
2018-07-23T13:16:58.282Z,50.73
2018-07-23T13:19:26.813Z,51.04
2018-07-23T13:21:55.432Z,55.67
2018-07-23T13:24:24.073Z,54.03
2018-07-23T13:26:52.653Z,52.38
2018-07-23T13:29:21.295Z,53.42
2018-07-23T13:31:49.941Z,53.43
2018-07-23T13:34:18.937Z,52.14
2018-07-23T13:36:47.559Z,50.10
2018-07-23T13:39:16.737Z,49.65
2018-07-23T13:41:45.785Z,48.37
2018-07-23T13:44:14.834Z,51.84
2018-07-23T13:46:43.436Z,52.51
2018-07-23T13:49:12.120Z,49.92
2018-07-23T13:51:40.683Z,53.54
2018-07-23T13:54:09.321Z,50.47
2018-07-23T13:56:37.854Z,47.06
2018-07-23T13:59:06.385Z,51.48
2018-07-23T14:01:35.007Z,46.52
2018-07-23T14:04:03.547Z,51.45
2018-07-23T14:06:32.195Z,53.35
2018-07-23T14:09:00.731Z,54.50
2018-07-23T14:11:29.263Z,54.77
2018-07-23T14:13:57.890Z,54.04
2018-07-23T14:16:26.425Z,55.52
2018-07-23T14:18:55.002Z,52.57
2018-07-23T14:21:23.573Z,54.90
2018-07-23T14:23:52.206Z,52.80
2018-07-23T14:26:20.858Z,57.88
2018-07-23T14:28:49.421Z,58.97
2018-07-23T14:31:17.975Z,57.02
2018-07-23T14:33:46.558Z,54.86
2018-07-23T14:36:15.240Z,51.40
2018-07-23T14:38:43.863Z,54.09
2018-07-23T14:41:12.447Z,53.93
2018-07-23T14:43:41.101Z,55.56
2018-07-23T14:46:09.683Z,52.26
2018-07-23T14:48:38.359Z,54.88
2018-07-23T14:51:06.930Z,55.88
2018-07-23T14:53:35.513Z,56.19
2018-07-23T14:56:04.146Z,56.19
2018-07-23T14:58:32.733Z,54.72
2018-07-23T15:01:01.374Z,53.09
2018-07-23T15:03:30.018Z,54.64
2018-07-23T15:05:58.533Z,55.43
2018-07-23T15:08:27.163Z,56.64
2018-07-23T15:10:55.703Z,54.31
2018-07-23T15:13:24.245Z,53.24
2018-07-23T15:15:52.825Z,49.33
2018-07-23T15:18:21.442Z,54.06
2018-07-23T15:20:50.211Z,52.88
2018-07-23T15:23:18.813Z,52.49
2018-07-23T15:25:47.408Z,49.65
2018-07-23T15:28:15.958Z,49.05
2018-07-23T15:30:44.545Z,51.91
2018-07-23T15:33:13.114Z,53.04
2018-07-23T15:35:41.809Z,50.73
2018-07-23T15:38:10.361Z,51.47
2018-07-23T15:40:38.941Z,48.84
2018-07-23T15:43:07.516Z,47.00
2018-07-23T15:45:36.222Z,46.57
2018-07-23T15:48:04.627Z,46.38
2018-07-23T15:50:33.174Z,46.71
2018-07-23T15:53:01.742Z,47.86
2018-07-23T15:55:30.297Z,48.43
2018-07-23T15:57:58.996Z,48.35
2018-07-23T16:00:27.584Z,59.81
2018-07-23T16:02:56.222Z,72.26
2018-07-23T16:05:25.142Z,80.29
2018-07-23T16:07:53.666Z,81.34
2018-07-23T16:10:22.438Z,85.22
2018-07-23T16:12:51.061Z,88.65
2018-07-23T16:15:19.605Z,90.92
2018-07-23T16:17:49.663Z,98.39
2018-07-23T16:20:18.737Z,100.00
2018-07-23T16:22:47.394Z,100.00
2018-07-23T16:25:16.076Z,100.00
2018-07-23T16:27:44.682Z,100.00
2018-07-23T16:30:13.232Z,100.00
2018-07-23T16:32:41.811Z,100.00
2018-07-23T16:35:12.078Z,100.00
2018-07-23T16:37:40.667Z,100.00
2018-07-23T16:40:09.520Z,100.00
2018-07-23T16:42:38.167Z,100.00
